sensor_id;sensor_type;location;lat;lon;timestamp;temperature;humidity
18147;DHT22;9199;48.832;9.182;2023-11-21T00:00:19;8.40;99.90
18147;DHT22;9199;48.832;9.182;2023-11-21T00:02:46;8.40;99.90
18147;DHT22;9199;48.832;9.182;2023-11-21T00:05:14;8.40;99.90
18147;DHT22;9199;48.832;9.182;2023-11-21T00:07:40;8.40;99.90
18147;DHT22;9199;48.832;9.182;2023-11-21T00:10:09;8.40;99.90
18147;DHT22;9199;48.832;9.182;2023-11-21T00:12:36;8.40;99.90
18147;DHT22;9199;48.832;9.182;2023-11-21T00:15:04;8.40;99.90
18147;DHT22;9199;48.832;9.182;2023-11-21T00:17:31;8.30;99.90
18147;DHT22;9199;48.832;9.182;2023-11-21T00:19:58;8.30;99.90
18147;DHT22;9199;48.832;9.182;2023-11-21T00:22:24;8.30;99.90
18147;DHT22;9199;48.832;9.182;2023-11-21T00:24:51;8.30;99.90
18147;DHT22;9199;48.832;9.182;2023-11-21T00:27:19;8.40;99.90
18147;DHT22;9199;48.832;9.182;2023-11-21T00:29:46;8.40;99.90
18147;DHT22;9199;48.832;9.182;2023-11-21T00:32:12;8.40;99.90
18147;DHT22;9199;48.832;9.182;2023-11-21T00:34:39;8.40;99.90
18147;DHT22;9199;48.832;9.182;2023-11-21T00:37:06;8.40;99.90
18147;DHT22;9199;48.832;9.182;2023-11-21T00:39:33;8.40;99.90
18147;DHT22;9199;48.832;9.182;2023-11-21T00:42:00;8.40;99.90
18147;DHT22;9199;48.832;9.182;2023-11-21T00:44:28;8.50;99.90
18147;DHT22;9199;48.832;9.182;2023-11-21T00:46:55;8.50;99.90
18147;DHT22;9199;48.832;9.182;2023-11-21T00:49:21;8.50;99.90
18147;DHT22;9199;48.832;9.182;2023-11-21T00:51:48;8.50;99.90
18147;DHT22;9199;48.832;9.182;2023-11-21T00:54:15;8.50;99.90
18147;DHT22;9199;48.832;9.182;2023-11-21T00:56:42;8.50;99.90
18147;DHT22;9199;48.832;9.182;2023-11-21T00:59:09;8.50;99.90
18147;DHT22;9199;48.832;9.182;2023-11-21T01:01:37;8.50;99.90
18147;DHT22;9199;48.832;9.182;2023-11-21T01:04:05;8.50;99.90
18147;DHT22;9199;48.832;9.182;2023-11-21T01:06:32;8.50;99.90
18147;DHT22;9199;48.832;9.182;2023-11-21T01:08:59;8.50;99.90
18147;DHT22;9199;48.832;9.182;2023-11-21T01:11:25;8.50;99.90
18147;DHT22;9199;48.832;9.182;2023-11-21T01:13:52;8.60;99.90
18147;DHT22;9199;48.832;9.182;2023-11-21T01:16:19;8.60;99.90
18147;DHT22;9199;48.832;9.182;2023-11-21T01:18:47;8.60;99.90
18147;DHT22;9199;48.832;9.182;2023-11-21T01:21:14;8.70;99.90
18147;DHT22;9199;48.832;9.182;2023-11-21T01:23:41;8.70;99.90
18147;DHT22;9199;48.832;9.182;2023-11-21T01:26:07;8.70;99.90
18147;DHT22;9199;48.832;9.182;2023-11-21T01:28:35;8.70;99.90
18147;DHT22;9199;48.832;9.182;2023-11-21T01:31:01;8.70;99.90
18147;DHT22;9199;48.832;9.182;2023-11-21T01:33:28;8.70;99.90
18147;DHT22;9199;48.832;9.182;2023-11-21T01:35:56;8.70;99.90
18147;DHT22;9199;48.832;9.182;2023-11-21T01:38:23;8.60;99.90
18147;DHT22;9199;48.832;9.182;2023-11-21T01:40:49;8.60;99.90
18147;DHT22;9199;48.832;9.182;2023-11-21T01:43:16;8.60;99.90
18147;DHT22;9199;48.832;9.182;2023-11-21T01:45:43;8.60;99.90
18147;DHT22;9199;48.832;9.182;2023-11-21T01:48:11;8.60;99.90
18147;DHT22;9199;48.832;9.182;2023-11-21T01:50:38;8.50;99.90
18147;DHT22;9199;48.832;9.182;2023-11-21T01:53:06;8.60;99.90
18147;DHT22;9199;48.832;9.182;2023-11-21T01:55:33;8.60;99.90
18147;DHT22;9199;48.832;9.182;2023-11-21T01:58:01;8.50;99.90
18147;DHT22;9199;48.832;9.182;2023-11-21T02:00:28;8.60;99.90
18147;DHT22;9199;48.832;9.182;2023-11-21T02:02:54;8.60;99.90
18147;DHT22;9199;48.832;9.182;2023-11-21T02:05:22;8.50;99.90
18147;DHT22;9199;48.832;9.182;2023-11-21T02:07:48;8.60;99.90
18147;DHT22;9199;48.832;9.182;2023-11-21T02:10:19;8.60;99.90
18147;DHT22;9199;48.832;9.182;2023-11-21T02:12:48;8.60;99.90
18147;DHT22;9199;48.832;9.182;2023-11-21T02:15:16;8.60;99.90
18147;DHT22;9199;48.832;9.182;2023-11-21T02:17:46;8.60;99.90
18147;DHT22;9199;48.832;9.182;2023-11-21T02:20:13;8.60;99.90
18147;DHT22;9199;48.832;9.182;2023-11-21T02:22:41;8.60;99.90
18147;DHT22;9199;48.832;9.182;2023-11-21T02:25:09;8.60;99.90
18147;DHT22;9199;48.832;9.182;2023-11-21T02:27:36;8.60;99.90
18147;DHT22;9199;48.832;9.182;2023-11-21T02:30:04;8.70;99.90
18147;DHT22;9199;48.832;9.182;2023-11-21T02:32:33;8.70;99.90
18147;DHT22;9199;48.832;9.182;2023-11-21T02:34:59;8.70;99.90
18147;DHT22;9199;48.832;9.182;2023-11-21T02:37:28;8.70;99.90
18147;DHT22;9199;48.832;9.182;2023-11-21T02:39:55;8.80;99.90
18147;DHT22;9199;48.832;9.182;2023-11-21T02:42:23;8.80;99.90
18147;DHT22;9199;48.832;9.182;2023-11-21T02:44:50;8.80;99.90
18147;DHT22;9199;48.832;9.182;2023-11-21T02:47:17;8.80;99.90
18147;DHT22;9199;48.832;9.182;2023-11-21T02:49:44;8.80;99.90
18147;DHT22;9199;48.832;9.182;2023-11-21T02:52:10;8.80;99.90
18147;DHT22;9199;48.832;9.182;2023-11-21T02:54:37;8.80;99.90
18147;DHT22;9199;48.832;9.182;2023-11-21T02:57:04;8.80;99.90
18147;DHT22;9199;48.832;9.182;2023-11-21T02:59:34;8.80;99.90
18147;DHT22;9199;48.832;9.182;2023-11-21T03:02:01;8.80;99.90
18147;DHT22;9199;48.832;9.182;2023-11-21T03:04:27;8.80;99.90
18147;DHT22;9199;48.832;9.182;2023-11-21T03:06:54;8.90;99.90
18147;DHT22;9199;48.832;9.182;2023-11-21T03:09:21;8.80;99.90
18147;DHT22;9199;48.832;9.182;2023-11-21T03:11:47;8.80;99.90
18147;DHT22;9199;48.832;9.182;2023-11-21T03:14:14;8.70;99.90
18147;DHT22;9199;48.832;9.182;2023-11-21T03:16:42;8.70;99.90
18147;DHT22;9199;48.832;9.182;2023-11-21T03:19:10;8.60;99.90
18147;DHT22;9199;48.832;9.182;2023-11-21T03:21:37;8.60;99.90
18147;DHT22;9199;48.832;9.182;2023-11-21T03:24:05;8.60;99.90
18147;DHT22;9199;48.832;9.182;2023-11-21T03:26:32;8.50;99.90
18147;DHT22;9199;48.832;9.182;2023-11-21T03:28:59;8.60;99.90
18147;DHT22;9199;48.832;9.182;2023-11-21T03:31:26;8.50;99.90
18147;DHT22;9199;48.832;9.182;2023-11-21T03:33:54;8.50;99.90
18147;DHT22;9199;48.832;9.182;2023-11-21T03:36:21;8.50;99.90
18147;DHT22;9199;48.832;9.182;2023-11-21T03:38:48;8.60;99.90
18147;DHT22;9199;48.832;9.182;2023-11-21T03:41:15;8.60;99.90
18147;DHT22;9199;48.832;9.182;2023-11-21T03:43:41;8.60;99.90
18147;DHT22;9199;48.832;9.182;2023-11-21T03:46:08;8.60;99.90
18147;DHT22;9199;48.832;9.182;2023-11-21T03:48:35;8.60;99.90
18147;DHT22;9199;48.832;9.182;2023-11-21T03:51:03;8.60;99.90
18147;DHT22;9199;48.832;9.182;2023-11-21T03:53:30;8.60;99.90
18147;DHT22;9199;48.832;9.182;2023-11-21T03:55:57;8.60;99.90
18147;DHT22;9199;48.832;9.182;2023-11-21T03:58:24;8.60;99.90
18147;DHT22;9199;48.832;9.182;2023-11-21T04:00:51;8.60;99.90
18147;DHT22;9199;48.832;9.182;2023-11-21T04:03:17;8.60;99.90
18147;DHT22;9199;48.832;9.182;2023-11-21T04:05:45;8.60;99.90
18147;DHT22;9199;48.832;9.182;2023-11-21T04:08:14;8.60;99.90
18147;DHT22;9199;48.832;9.182;2023-11-21T04:10:40;8.60;99.90
18147;DHT22;9199;48.832;9.182;2023-11-21T04:13:07;8.60;99.90
18147;DHT22;9199;48.832;9.182;2023-11-21T04:15:34;8.60;99.90
18147;DHT22;9199;48.832;9.182;2023-11-21T04:18:01;8.60;99.90
18147;DHT22;9199;48.832;9.182;2023-11-21T04:20:28;8.60;99.90
18147;DHT22;9199;48.832;9.182;2023-11-21T04:22:55;8.60;99.90
18147;DHT22;9199;48.832;9.182;2023-11-21T04:25:23;8.50;99.90
18147;DHT22;9199;48.832;9.182;2023-11-21T04:27:50;8.50;99.90
18147;DHT22;9199;48.832;9.182;2023-11-21T04:30:16;8.50;99.90
18147;DHT22;9199;48.832;9.182;2023-11-21T04:32:43;8.50;99.90
18147;DHT22;9199;48.832;9.182;2023-11-21T04:35:10;8.50;99.90
18147;DHT22;9199;48.832;9.182;2023-11-21T04:37:37;8.60;99.90
18147;DHT22;9199;48.832;9.182;2023-11-21T04:40:04;8.50;99.90
18147;DHT22;9199;48.832;9.182;2023-11-21T04:42:35;8.40;99.90
18147;DHT22;9199;48.832;9.182;2023-11-21T04:45:02;8.40;99.90
18147;DHT22;9199;48.832;9.182;2023-11-21T04:47:33;8.40;99.90
18147;DHT22;9199;48.832;9.182;2023-11-21T04:49:59;8.30;99.90
18147;DHT22;9199;48.832;9.182;2023-11-21T04:52:26;8.30;99.90
18147;DHT22;9199;48.832;9.182;2023-11-21T04:54:53;8.30;99.90
18147;DHT22;9199;48.832;9.182;2023-11-21T04:57:20;8.30;99.90
18147;DHT22;9199;48.832;9.182;2023-11-21T04:59:48;8.30;99.90
18147;DHT22;9199;48.832;9.182;2023-11-21T05:02:15;8.30;99.90
18147;DHT22;9199;48.832;9.182;2023-11-21T05:04:44;8.30;99.90
18147;DHT22;9199;48.832;9.182;2023-11-21T05:07:11;8.30;99.90
18147;DHT22;9199;48.832;9.182;2023-11-21T05:09:41;8.30;99.90
18147;DHT22;9199;48.832;9.182;2023-11-21T05:12:09;8.30;99.90
18147;DHT22;9199;48.832;9.182;2023-11-21T05:14:36;8.30;99.90
18147;DHT22;9199;48.832;9.182;2023-11-21T05:17:04;8.30;99.90
18147;DHT22;9199;48.832;9.182;2023-11-21T05:19:31;8.30;99.90
18147;DHT22;9199;48.832;9.182;2023-11-21T05:21:58;8.30;99.90
18147;DHT22;9199;48.832;9.182;2023-11-21T05:24:26;8.30;99.90
18147;DHT22;9199;48.832;9.182;2023-11-21T05:26:54;8.30;99.90
18147;DHT22;9199;48.832;9.182;2023-11-21T05:29:21;8.30;99.90
18147;DHT22;9199;48.832;9.182;2023-11-21T05:31:48;8.30;99.90
18147;DHT22;9199;48.832;9.182;2023-11-21T05:34:16;8.30;99.90
18147;DHT22;9199;48.832;9.182;2023-11-21T05:36:43;8.30;99.90
18147;DHT22;9199;48.832;9.182;2023-11-21T05:39:11;8.30;99.90
18147;DHT22;9199;48.832;9.182;2023-11-21T05:41:37;8.30;99.90
18147;DHT22;9199;48.832;9.182;2023-11-21T05:44:04;8.30;99.90
18147;DHT22;9199;48.832;9.182;2023-11-21T05:46:31;8.30;99.90
18147;DHT22;9199;48.832;9.182;2023-11-21T05:48:58;8.30;99.90
18147;DHT22;9199;48.832;9.182;2023-11-21T05:51:26;8.30;99.90
18147;DHT22;9199;48.832;9.182;2023-11-21T05:53:53;8.30;99.90
18147;DHT22;9199;48.832;9.182;2023-11-21T05:56:20;8.30;99.90
18147;DHT22;9199;48.832;9.182;2023-11-21T05:58:46;8.20;99.90
18147;DHT22;9199;48.832;9.182;2023-11-21T06:01:14;8.30;99.90
18147;DHT22;9199;48.832;9.182;2023-11-21T06:03:40;8.20;99.90
18147;DHT22;9199;48.832;9.182;2023-11-21T06:06:08;8.80;99.90
18147;DHT22;9199;48.832;9.182;2023-11-21T06:08:36;9.30;99.90
18147;DHT22;9199;48.832;9.182;2023-11-21T06:11:03;9.70;99.90
18147;DHT22;9199;48.832;9.182;2023-11-21T06:13:30;10.20;99.90
18147;DHT22;9199;48.832;9.182;2023-11-21T06:15:56;10.40;99.90
18147;DHT22;9199;48.832;9.182;2023-11-21T06:18:23;10.60;99.90
18147;DHT22;9199;48.832;9.182;2023-11-21T06:20:50;10.80;99.90
18147;DHT22;9199;48.832;9.182;2023-11-21T06:23:18;11.00;99.90
18147;DHT22;9199;48.832;9.182;2023-11-21T06:25:46;11.00;99.90
18147;DHT22;9199;48.832;9.182;2023-11-21T06:28:14;10.90;99.90
18147;DHT22;9199;48.832;9.182;2023-11-21T06:30:43;10.80;99.90
18147;DHT22;9199;48.832;9.182;2023-11-21T06:33:10;10.80;99.90
18147;DHT22;9199;48.832;9.182;2023-11-21T06:35:37;10.80;99.90
18147;DHT22;9199;48.832;9.182;2023-11-21T06:38:05;10.60;99.90
18147;DHT22;9199;48.832;9.182;2023-11-21T06:40:32;10.30;99.90
18147;DHT22;9199;48.832;9.182;2023-11-21T06:43:01;10.00;99.90
18147;DHT22;9199;48.832;9.182;2023-11-21T06:45:28;9.80;99.90
18147;DHT22;9199;48.832;9.182;2023-11-21T06:47:54;9.60;99.90
18147;DHT22;9199;48.832;9.182;2023-11-21T06:50:21;9.40;99.90
18147;DHT22;9199;48.832;9.182;2023-11-21T06:52:48;9.30;99.90
18147;DHT22;9199;48.832;9.182;2023-11-21T06:55:15;9.20;99.90
18147;DHT22;9199;48.832;9.182;2023-11-21T06:57:42;9.00;99.90
18147;DHT22;9199;48.832;9.182;2023-11-21T07:00:12;8.90;99.90
18147;DHT22;9199;48.832;9.182;2023-11-21T07:02:39;8.90;99.90
18147;DHT22;9199;48.832;9.182;2023-11-21T07:05:06;8.90;99.90
18147;DHT22;9199;48.832;9.182;2023-11-21T07:07:33;8.80;99.90
18147;DHT22;9199;48.832;9.182;2023-11-21T07:10:01;8.80;99.90
18147;DHT22;9199;48.832;9.182;2023-11-21T07:12:29;8.80;99.90
18147;DHT22;9199;48.832;9.182;2023-11-21T07:14:56;8.80;99.90
18147;DHT22;9199;48.832;9.182;2023-11-21T07:17:24;8.70;99.90
18147;DHT22;9199;48.832;9.182;2023-11-21T07:19:51;8.80;99.90
18147;DHT22;9199;48.832;9.182;2023-11-21T07:22:18;8.80;99.90
18147;DHT22;9199;48.832;9.182;2023-11-21T07:24:48;8.80;99.90
18147;DHT22;9199;48.832;9.182;2023-11-21T07:27:16;8.80;99.90
18147;DHT22;9199;48.832;9.182;2023-11-21T07:29:43;8.80;99.90
18147;DHT22;9199;48.832;9.182;2023-11-21T07:32:09;8.80;99.90
18147;DHT22;9199;48.832;9.182;2023-11-21T07:34:37;8.80;99.90
18147;DHT22;9199;48.832;9.182;2023-11-21T07:37:04;8.80;99.90
18147;DHT22;9199;48.832;9.182;2023-11-21T07:39:31;8.80;99.90
18147;DHT22;9199;48.832;9.182;2023-11-21T07:41:57;8.90;99.90
18147;DHT22;9199;48.832;9.182;2023-11-21T07:44:24;8.90;99.90
18147;DHT22;9199;48.832;9.182;2023-11-21T07:46:51;9.00;99.90
18147;DHT22;9199;48.832;9.182;2023-11-21T07:49:22;9.10;99.90
18147;DHT22;9199;48.832;9.182;2023-11-21T07:51:50;9.20;99.90
18147;DHT22;9199;48.832;9.182;2023-11-21T07:54:17;9.20;99.90
18147;DHT22;9199;48.832;9.182;2023-11-21T07:56:44;9.30;99.90
18147;DHT22;9199;48.832;9.182;2023-11-21T07:59:11;9.30;99.90
18147;DHT22;9199;48.832;9.182;2023-11-21T08:01:38;9.30;99.90
18147;DHT22;9199;48.832;9.182;2023-11-21T08:04:05;9.30;99.90
18147;DHT22;9199;48.832;9.182;2023-11-21T08:06:33;9.30;99.90
18147;DHT22;9199;48.832;9.182;2023-11-21T08:09:02;9.40;99.90
18147;DHT22;9199;48.832;9.182;2023-11-21T08:11:28;9.40;99.90
18147;DHT22;9199;48.832;9.182;2023-11-21T08:13:57;9.50;99.90
18147;DHT22;9199;48.832;9.182;2023-11-21T08:16:24;9.60;99.90
18147;DHT22;9199;48.832;9.182;2023-11-21T08:18:51;9.70;99.90
18147;DHT22;9199;48.832;9.182;2023-11-21T08:21:18;9.80;99.90
18147;DHT22;9199;48.832;9.182;2023-11-21T08:23:45;9.80;99.90
18147;DHT22;9199;48.832;9.182;2023-11-21T08:26:16;9.90;99.90
18147;DHT22;9199;48.832;9.182;2023-11-21T08:28:42;10.00;99.90
18147;DHT22;9199;48.832;9.182;2023-11-21T08:31:09;10.10;99.90
18147;DHT22;9199;48.832;9.182;2023-11-21T08:33:36;10.20;99.90
18147;DHT22;9199;48.832;9.182;2023-11-21T08:36:07;10.40;99.90
18147;DHT22;9199;48.832;9.182;2023-11-21T08:38:33;10.50;99.90
18147;DHT22;9199;48.832;9.182;2023-11-21T08:41:03;10.70;99.90
18147;DHT22;9199;48.832;9.182;2023-11-21T08:43:34;10.70;99.90
18147;DHT22;9199;48.832;9.182;2023-11-21T08:46:00;10.70;99.90
18147;DHT22;9199;48.832;9.182;2023-11-21T08:48:28;10.70;99.90
18147;DHT22;9199;48.832;9.182;2023-11-21T08:50:55;10.70;99.90
18147;DHT22;9199;48.832;9.182;2023-11-21T08:53:22;10.80;99.90
18147;DHT22;9199;48.832;9.182;2023-11-21T08:55:48;10.80;99.90
18147;DHT22;9199;48.832;9.182;2023-11-21T08:58:15;10.90;99.90
18147;DHT22;9199;48.832;9.182;2023-11-21T09:00:44;11.00;99.90
18147;DHT22;9199;48.832;9.182;2023-11-21T09:03:12;11.10;99.90
18147;DHT22;9199;48.832;9.182;2023-11-21T09:05:39;11.10;99.90
18147;DHT22;9199;48.832;9.182;2023-11-21T09:08:06;11.00;99.90
18147;DHT22;9199;48.832;9.182;2023-11-21T09:10:33;10.90;99.90
18147;DHT22;9199;48.832;9.182;2023-11-21T09:13:01;10.70;99.90
18147;DHT22;9199;48.832;9.182;2023-11-21T09:15:28;10.60;99.90
18147;DHT22;9199;48.832;9.182;2023-11-21T09:17:56;10.60;99.90
18147;DHT22;9199;48.832;9.182;2023-11-21T09:20:23;10.70;99.90
18147;DHT22;9199;48.832;9.182;2023-11-21T09:22:50;10.80;99.90
18147;DHT22;9199;48.832;9.182;2023-11-21T09:25:17;10.90;99.90
18147;DHT22;9199;48.832;9.182;2023-11-21T09:27:45;11.10;99.90
18147;DHT22;9199;48.832;9.182;2023-11-21T09:30:13;11.10;99.90
18147;DHT22;9199;48.832;9.182;2023-11-21T09:32:40;11.20;99.90
18147;DHT22;9199;48.832;9.182;2023-11-21T09:35:12;11.10;99.90
18147;DHT22;9199;48.832;9.182;2023-11-21T09:37:39;11.00;99.90
18147;DHT22;9199;48.832;9.182;2023-11-21T09:40:10;10.90;99.90
18147;DHT22;9199;48.832;9.182;2023-11-21T09:42:40;10.80;99.90
18147;DHT22;9199;48.832;9.182;2023-11-21T09:45:14;10.80;99.90
18147;DHT22;9199;48.832;9.182;2023-11-21T09:47:42;10.70;99.90
18147;DHT22;9199;48.832;9.182;2023-11-21T09:50:09;10.70;99.90
18147;DHT22;9199;48.832;9.182;2023-11-21T09:52:43;10.70;99.90
18147;DHT22;9199;48.832;9.182;2023-11-21T09:55:13;10.60;99.90
18147;DHT22;9199;48.832;9.182;2023-11-21T09:57:42;10.50;99.90
18147;DHT22;9199;48.832;9.182;2023-11-21T10:00:11;10.50;99.90
18147;DHT22;9199;48.832;9.182;2023-11-21T10:02:38;10.30;99.90
18147;DHT22;9199;48.832;9.182;2023-11-21T10:05:06;10.20;99.90
18147;DHT22;9199;48.832;9.182;2023-11-21T10:07:35;10.20;99.90
18147;DHT22;9199;48.832;9.182;2023-11-21T10:10:03;10.20;99.90
18147;DHT22;9199;48.832;9.182;2023-11-21T10:12:31;10.10;99.90
18147;DHT22;9199;48.832;9.182;2023-11-21T10:14:59;10.10;99.90
18147;DHT22;9199;48.832;9.182;2023-11-21T10:17:28;10.10;99.90
18147;DHT22;9199;48.832;9.182;2023-11-21T10:19:57;10.10;99.90
18147;DHT22;9199;48.832;9.182;2023-11-21T10:22:24;10.10;99.90
18147;DHT22;9199;48.832;9.182;2023-11-21T10:24:51;10.20;99.90
18147;DHT22;9199;48.832;9.182;2023-11-21T10:27:20;10.20;99.90
18147;DHT22;9199;48.832;9.182;2023-11-21T10:29:47;10.20;99.90
18147;DHT22;9199;48.832;9.182;2023-11-21T10:32:13;10.20;99.90
18147;DHT22;9199;48.832;9.182;2023-11-21T10:34:40;10.20;99.90
18147;DHT22;9199;48.832;9.182;2023-11-21T10:37:11;10.20;99.90
18147;DHT22;9199;48.832;9.182;2023-11-21T10:39:38;10.30;99.90
18147;DHT22;9199;48.832;9.182;2023-11-21T10:42:08;10.40;99.90
18147;DHT22;9199;48.832;9.182;2023-11-21T10:44:36;10.50;99.90
18147;DHT22;9199;48.832;9.182;2023-11-21T10:47:03;10.60;99.90
18147;DHT22;9199;48.832;9.182;2023-11-21T10:49:30;10.90;99.90
18147;DHT22;9199;48.832;9.182;2023-11-21T10:51:57;11.20;99.90
18147;DHT22;9199;48.832;9.182;2023-11-21T10:54:25;11.50;99.90
18147;DHT22;9199;48.832;9.182;2023-11-21T10:56:56;11.70;99.90
18147;DHT22;9199;48.832;9.182;2023-11-21T10:59:26;11.60;99.90
18147;DHT22;9199;48.832;9.182;2023-11-21T11:01:57;11.50;99.90
18147;DHT22;9199;48.832;9.182;2023-11-21T11:04:27;11.40;99.90
18147;DHT22;9199;48.832;9.182;2023-11-21T11:06:55;11.30;99.90
18147;DHT22;9199;48.832;9.182;2023-11-21T11:09:23;11.30;99.90
18147;DHT22;9199;48.832;9.182;2023-11-21T11:11:51;11.20;99.90
18147;DHT22;9199;48.832;9.182;2023-11-21T11:14:19;11.30;99.90
18147;DHT22;9199;48.832;9.182;2023-11-21T11:16:50;11.40;99.90
18147;DHT22;9199;48.832;9.182;2023-11-21T11:19:19;11.40;99.90
18147;DHT22;9199;48.832;9.182;2023-11-21T11:21:52;11.70;99.90
18147;DHT22;9199;48.832;9.182;2023-11-21T11:24:41;11.80;99.90
18147;DHT22;9199;48.832;9.182;2023-11-21T11:27:21;12.00;99.90
18147;DHT22;9199;48.832;9.182;2023-11-21T11:29:59;12.10;99.90
18147;DHT22;9199;48.832;9.182;2023-11-21T11:32:39;12.10;99.90
18147;DHT22;9199;48.832;9.182;2023-11-21T11:35:12;12.10;99.90
18147;DHT22;9199;48.832;9.182;2023-11-21T11:37:42;12.00;99.90
18147;DHT22;9199;48.832;9.182;2023-11-21T11:40:11;12.00;99.90
18147;DHT22;9199;48.832;9.182;2023-11-21T11:42:38;11.90;99.90
18147;DHT22;9199;48.832;9.182;2023-11-21T11:45:17;11.80;99.90
18147;DHT22;9199;48.832;9.182;2023-11-21T11:47:44;11.70;99.90
18147;DHT22;9199;48.832;9.182;2023-11-21T11:50:15;11.70;99.90
18147;DHT22;9199;48.832;9.182;2023-11-21T11:52:46;11.60;99.90
18147;DHT22;9199;48.832;9.182;2023-11-21T11:55:15;11.40;99.90
18147;DHT22;9199;48.832;9.182;2023-11-21T11:57:44;11.30;99.90
18147;DHT22;9199;48.832;9.182;2023-11-21T12:00:14;11.30;99.90
18147;DHT22;9199;48.832;9.182;2023-11-21T12:02:47;11.20;99.90
18147;DHT22;9199;48.832;9.182;2023-11-21T12:05:16;11.20;99.90
18147;DHT22;9199;48.832;9.182;2023-11-21T12:07:44;11.10;99.90
18147;DHT22;9199;48.832;9.182;2023-11-21T12:10:13;11.00;99.90
18147;DHT22;9199;48.832;9.182;2023-11-21T12:12:44;10.90;99.90
18147;DHT22;9199;48.832;9.182;2023-11-21T12:15:11;10.90;99.90
18147;DHT22;9199;48.832;9.182;2023-11-21T12:17:38;11.00;99.90
18147;DHT22;9199;48.832;9.182;2023-11-21T12:20:06;11.10;99.90
18147;DHT22;9199;48.832;9.182;2023-11-21T12:22:42;11.20;99.90
18147;DHT22;9199;48.832;9.182;2023-11-21T12:25:09;11.40;99.90
18147;DHT22;9199;48.832;9.182;2023-11-21T12:27:40;11.50;99.90
18147;DHT22;9199;48.832;9.182;2023-11-21T12:30:08;11.70;99.90
18147;DHT22;9199;48.832;9.182;2023-11-21T12:32:39;11.80;99.90
18147;DHT22;9199;48.832;9.182;2023-11-21T12:35:06;11.90;99.90
18147;DHT22;9199;48.832;9.182;2023-11-21T12:37:33;12.00;99.90
18147;DHT22;9199;48.832;9.182;2023-11-21T12:40:01;12.00;99.90
18147;DHT22;9199;48.832;9.182;2023-11-21T12:42:28;12.20;99.90
18147;DHT22;9199;48.832;9.182;2023-11-21T12:45:21;12.30;99.90
18147;DHT22;9199;48.832;9.182;2023-11-21T12:47:52;12.30;99.90
18147;DHT22;9199;48.832;9.182;2023-11-21T12:50:20;12.10;99.90
18147;DHT22;9199;48.832;9.182;2023-11-21T12:52:50;11.90;99.90
18147;DHT22;9199;48.832;9.182;2023-11-21T12:55:21;11.80;99.90
18147;DHT22;9199;48.832;9.182;2023-11-21T12:57:48;11.70;99.90
18147;DHT22;9199;48.832;9.182;2023-11-21T13:00:18;11.60;99.90
18147;DHT22;9199;48.832;9.182;2023-11-21T13:02:53;11.50;99.90
18147;DHT22;9199;48.832;9.182;2023-11-21T13:05:29;11.30;99.90
18147;DHT22;9199;48.832;9.182;2023-11-21T13:07:57;11.20;99.90
18147;DHT22;9199;48.832;9.182;2023-11-21T13:10:27;10.70;99.90
18147;DHT22;9199;48.832;9.182;2023-11-21T13:12:56;10.40;99.90
18147;DHT22;9199;48.832;9.182;2023-11-21T13:15:25;10.10;99.90
18147;DHT22;9199;48.832;9.182;2023-11-21T13:17:53;9.80;99.90
18147;DHT22;9199;48.832;9.182;2023-11-21T13:20:21;9.70;99.90
18147;DHT22;9199;48.832;9.182;2023-11-21T13:22:49;9.60;99.90
18147;DHT22;9199;48.832;9.182;2023-11-21T13:25:17;9.60;99.90
18147;DHT22;9199;48.832;9.182;2023-11-21T13:27:46;9.50;99.90
18147;DHT22;9199;48.832;9.182;2023-11-21T13:30:14;9.60;99.90
18147;DHT22;9199;48.832;9.182;2023-11-21T13:32:42;9.50;99.90
18147;DHT22;9199;48.832;9.182;2023-11-21T13:35:11;9.40;99.90
18147;DHT22;9199;48.832;9.182;2023-11-21T13:37:47;9.40;99.90
18147;DHT22;9199;48.832;9.182;2023-11-21T13:40:19;9.40;99.90
18147;DHT22;9199;48.832;9.182;2023-11-21T13:42:49;9.40;99.90
18147;DHT22;9199;48.832;9.182;2023-11-21T13:45:19;9.40;99.90
18147;DHT22;9199;48.832;9.182;2023-11-21T13:47:48;9.40;99.90
18147;DHT22;9199;48.832;9.182;2023-11-21T13:50:16;9.50;99.90
18147;DHT22;9199;48.832;9.182;2023-11-21T13:52:48;9.50;99.90
18147;DHT22;9199;48.832;9.182;2023-11-21T13:55:15;9.60;99.90
18147;DHT22;9199;48.832;9.182;2023-11-21T13:57:42;9.60;99.90
18147;DHT22;9199;48.832;9.182;2023-11-21T14:00:15;9.60;99.90
18147;DHT22;9199;48.832;9.182;2023-11-21T14:03:02;9.60;99.90
18147;DHT22;9199;48.832;9.182;2023-11-21T14:05:33;9.70;99.90
18147;DHT22;9199;48.832;9.182;2023-11-21T14:08:00;9.70;99.90
18147;DHT22;9199;48.832;9.182;2023-11-21T14:10:30;9.70;99.90
18147;DHT22;9199;48.832;9.182;2023-11-21T14:13:05;9.70;99.90
18147;DHT22;9199;48.832;9.182;2023-11-21T14:15:33;9.60;99.90
18147;DHT22;9199;48.832;9.182;2023-11-21T14:18:04;9.60;99.90
18147;DHT22;9199;48.832;9.182;2023-11-21T14:20:33;9.60;99.90
18147;DHT22;9199;48.832;9.182;2023-11-21T14:23:01;9.60;99.90
18147;DHT22;9199;48.832;9.182;2023-11-21T14:25:28;9.60;99.90
18147;DHT22;9199;48.832;9.182;2023-11-21T14:27:55;9.60;99.90
18147;DHT22;9199;48.832;9.182;2023-11-21T14:30:22;9.50;99.90
18147;DHT22;9199;48.832;9.182;2023-11-21T14:32:51;9.50;99.90
18147;DHT22;9199;48.832;9.182;2023-11-21T14:35:18;9.50;99.90
18147;DHT22;9199;48.832;9.182;2023-11-21T14:37:45;9.50;99.90
18147;DHT22;9199;48.832;9.182;2023-11-21T14:40:12;9.50;99.90
18147;DHT22;9199;48.832;9.182;2023-11-21T14:42:41;9.50;99.90
18147;DHT22;9199;48.832;9.182;2023-11-21T14:45:09;9.50;99.90
18147;DHT22;9199;48.832;9.182;2023-11-21T14:47:38;9.60;99.90
18147;DHT22;9199;48.832;9.182;2023-11-21T14:50:11;9.60;99.90
18147;DHT22;9199;48.832;9.182;2023-11-21T14:53:05;9.60;99.90
18147;DHT22;9199;48.832;9.182;2023-11-21T14:55:32;9.70;99.90
18147;DHT22;9199;48.832;9.182;2023-11-21T14:58:05;9.70;99.90
18147;DHT22;9199;48.832;9.182;2023-11-21T15:00:36;9.60;99.90
18147;DHT22;9199;48.832;9.182;2023-11-21T15:03:10;9.60;99.90
18147;DHT22;9199;48.832;9.182;2023-11-21T15:05:46;9.50;99.90
18147;DHT22;9199;48.832;9.182;2023-11-21T15:08:15;9.50;99.90
18147;DHT22;9199;48.832;9.182;2023-11-21T15:10:47;9.40;99.90
18147;DHT22;9199;48.832;9.182;2023-11-21T15:13:19;9.40;99.90
18147;DHT22;9199;48.832;9.182;2023-11-21T15:15:45;9.40;99.90
18147;DHT22;9199;48.832;9.182;2023-11-21T15:18:12;9.40;99.90
18147;DHT22;9199;48.832;9.182;2023-11-21T15:20:40;9.40;99.90
18147;DHT22;9199;48.832;9.182;2023-11-21T15:23:07;9.40;99.90
18147;DHT22;9199;48.832;9.182;2023-11-21T15:25:35;9.40;99.90
18147;DHT22;9199;48.832;9.182;2023-11-21T15:28:02;9.40;99.90
18147;DHT22;9199;48.832;9.182;2023-11-21T15:30:30;9.30;99.90
18147;DHT22;9199;48.832;9.182;2023-11-21T15:32:58;9.30;99.90
18147;DHT22;9199;48.832;9.182;2023-11-21T15:35:25;9.30;99.90
18147;DHT22;9199;48.832;9.182;2023-11-21T15:37:53;9.20;99.90
18147;DHT22;9199;48.832;9.182;2023-11-21T15:40:23;9.20;99.90
18147;DHT22;9199;48.832;9.182;2023-11-21T15:42:51;9.20;99.90
18147;DHT22;9199;48.832;9.182;2023-11-21T15:45:19;9.20;99.90
18147;DHT22;9199;48.832;9.182;2023-11-21T15:47:48;9.20;99.90
18147;DHT22;9199;48.832;9.182;2023-11-21T15:50:15;9.20;99.90
18147;DHT22;9199;48.832;9.182;2023-11-21T15:52:42;9.20;99.90
18147;DHT22;9199;48.832;9.182;2023-11-21T15:55:09;9.10;99.90
18147;DHT22;9199;48.832;9.182;2023-11-21T15:57:36;9.10;99.90
18147;DHT22;9199;48.832;9.182;2023-11-21T16:00:05;9.10;99.90
18147;DHT22;9199;48.832;9.182;2023-11-21T16:02:41;9.00;99.90